McCarthy, Alaska
Current Conditions -  °F | °C
As of 4:53 AM on Sunday 25 Jan 2015 (Local Time) from PAGK Reporting Station
Light Snow Light Snow  
Wind Chill:   Ceiling: 7000
Heat Index:   Visibility: 5mi
Dew Point:   Wind: 5mph
Humidity: 76%   Direction: 320°NW
Pressure: 29.38"   Gusts: NA
Location:  61.44°N, 142.91°W
Report Text: PAGK 251353Z AUTO 32004KT 5SM -SN OVC070 M13/M17 A2938 RMK AO2 SLP997 P0000 T11331167 TSNO
Loading
Personal Weather Stations






























Interactive Weather Map New forecast layout! Learn more

10-Day Weather Forecast

Advertisements
Track Severe Weather on mobile